createdAt,value
2019-06-25T00:00:45.925Z,2.40
2019-06-25T00:01:45.926Z,4.30
2019-06-25T00:02:45.937Z,2.80
2019-06-25T00:03:45.952Z,2.60
2019-06-25T00:04:45.968Z,3.50
2019-06-25T00:05:45.977Z,2.10
2019-06-25T00:06:45.990Z,4.90
2019-06-25T00:07:46.009Z,3.90
2019-06-25T00:08:46.017Z,3.20
2019-06-25T00:09:46.044Z,3.10
2019-06-25T00:10:46.036Z,4.10
2019-06-25T00:11:46.064Z,4.00
2019-06-25T00:12:46.068Z,3.40
2019-06-25T00:14:46.098Z,4.00
2019-06-25T00:15:46.103Z,3.40
2019-06-25T00:16:46.118Z,2.50
2019-06-25T00:17:46.158Z,3.90
2019-06-25T00:18:46.134Z,2.30
2019-06-25T00:19:46.151Z,2.70
2019-06-25T00:20:46.159Z,2.60
2019-06-25T00:21:46.175Z,2.60
2019-06-25T00:22:46.187Z,3.30
2019-06-25T00:23:46.200Z,3.20
2019-06-25T00:24:46.208Z,2.50
2019-06-25T00:25:46.227Z,2.30
2019-06-25T00:26:46.233Z,2.10
2019-06-25T00:27:46.244Z,2.80
2019-06-25T00:28:46.261Z,2.60
2019-06-25T00:29:55.774Z,2.90
2019-06-25T00:30:46.285Z,2.80
2019-06-25T00:31:46.299Z,3.50
2019-06-25T00:32:46.301Z,2.50
2019-06-25T00:33:46.324Z,4.30
2019-06-25T00:34:46.326Z,3.50
2019-06-25T00:35:46.346Z,2.00
2019-06-25T00:36:46.358Z,2.70
2019-06-25T00:37:46.379Z,2.40
2019-06-25T00:38:46.392Z,2.90
2019-06-25T00:39:46.398Z,2.90
2019-06-25T00:40:46.408Z,2.60
2019-06-25T00:41:46.420Z,4.80
2019-06-25T00:42:46.430Z,4.30
2019-06-25T00:43:46.454Z,3.20
2019-06-25T00:44:46.455Z,2.60
2019-06-25T00:45:46.462Z,4.10
2019-06-25T00:46:46.479Z,4.50
2019-06-25T00:47:46.487Z,4.80
2019-06-25T00:48:46.512Z,3.00
2019-06-25T00:49:46.513Z,3.80
2019-06-25T00:50:46.531Z,3.70
2019-06-25T00:51:46.550Z,2.20
2019-06-25T00:52:46.556Z,2.50
2019-06-25T00:53:46.570Z,2.30
2019-06-25T00:54:46.580Z,3.80
2019-06-25T00:55:46.594Z,4.10
2019-06-25T00:56:46.602Z,3.20
2019-06-25T00:57:46.612Z,2.90
2019-06-25T00:58:46.626Z,3.10
2019-06-25T00:59:46.641Z,4.60
2019-06-25T01:00:46.661Z,4.40
2019-06-25T01:01:46.663Z,3.40
2019-06-25T01:02:46.665Z,3.10
2019-06-25T01:03:46.759Z,3.00
2019-06-25T01:04:46.698Z,2.50
2019-06-25T01:05:46.711Z,2.80
2019-06-25T01:06:46.721Z,3.00
2019-06-25T01:07:46.735Z,2.80
2019-06-25T01:08:46.742Z,2.40
2019-06-25T01:09:46.758Z,2.70
2019-06-25T01:10:46.771Z,4.00
2019-06-25T01:11:46.792Z,2.70
2019-06-25T01:12:46.797Z,2.90
2019-06-25T01:13:46.849Z,3.30
2019-06-25T01:14:46.839Z,2.80
2019-06-25T01:15:46.833Z,1.90
2019-06-25T01:16:46.843Z,2.90
2019-06-25T01:17:46.850Z,3.30
2019-06-25T01:18:46.864Z,2.20
2019-06-25T01:19:46.872Z,2.00
2019-06-25T01:20:46.888Z,2.30
2019-06-25T01:21:46.901Z,3.20
2019-06-25T01:22:46.910Z,2.90
2019-06-25T01:23:46.926Z,3.80
2019-06-25T01:24:46.943Z,2.60
2019-06-25T01:25:46.974Z,2.40
2019-06-25T01:26:46.959Z,2.50
2019-06-25T01:27:46.966Z,2.70
2019-06-25T01:28:46.981Z,1.90
2019-06-25T01:29:46.996Z,2.80
2019-06-25T01:30:47.007Z,2.30
2019-06-25T01:31:47.022Z,2.80
2019-06-25T01:32:47.036Z,2.70
2019-06-25T01:33:47.043Z,2.30
2019-06-25T01:34:47.055Z,2.80
2019-06-25T01:35:47.060Z,2.70
2019-06-25T01:36:47.082Z,2.30
2019-06-25T01:37:47.092Z,2.20
2019-06-25T01:38:47.107Z,3.00
2019-06-25T01:39:47.111Z,2.70
2019-06-25T01:40:47.127Z,2.80
2019-06-25T01:41:47.144Z,2.50
2019-06-25T01:42:47.153Z,3.10
2019-06-25T01:43:47.159Z,2.90
2019-06-25T01:44:47.189Z,2.30
2019-06-25T01:45:47.187Z,2.50
2019-06-25T01:46:47.206Z,2.80
2019-06-25T01:47:47.209Z,3.50
2019-06-25T01:48:47.217Z,2.70
2019-06-25T01:49:47.232Z,2.70
2019-06-25T01:50:47.245Z,2.40
2019-06-25T01:51:47.254Z,2.70
2019-06-25T01:52:47.274Z,2.60
2019-06-25T01:53:47.284Z,1.70
2019-06-25T01:54:47.289Z,2.30
2019-06-25T01:55:47.307Z,2.60
2019-06-25T01:56:47.318Z,1.90
2019-06-25T01:57:47.326Z,2.50
2019-06-25T01:58:47.325Z,1.90
2019-06-25T01:59:47.354Z,2.30
2019-06-25T02:00:47.362Z,2.30
2019-06-25T02:01:47.375Z,2.20
2019-06-25T02:02:47.390Z,2.50
2019-06-25T02:03:47.397Z,2.40
2019-06-25T02:04:48.367Z,2.60
2019-06-25T02:05:47.421Z,2.50
2019-06-25T02:06:47.439Z,2.50
2019-06-25T02:07:47.445Z,2.40
2019-06-25T02:08:47.450Z,3.10
2019-06-25T02:09:47.468Z,3.30
2019-06-25T02:10:47.478Z,4.30
2019-06-25T02:11:47.502Z,6.30
2019-06-25T02:12:47.506Z,1.90
2019-06-25T02:13:47.515Z,3.20
2019-06-25T02:14:47.529Z,3.00
2019-06-25T02:15:47.541Z,3.10
2019-06-25T02:16:47.548Z,2.50
2019-06-25T02:17:47.567Z,2.90
2019-06-25T02:18:47.573Z,2.90
2019-06-25T02:19:47.585Z,2.80
2019-06-25T02:20:47.597Z,3.10
2019-06-25T02:21:47.605Z,2.30
2019-06-25T02:22:47.615Z,2.30
2019-06-25T02:23:47.634Z,2.80
2019-06-25T02:24:47.644Z,3.20
2019-06-25T02:25:47.653Z,2.10
2019-06-25T02:26:47.753Z,2.10
2019-06-25T02:27:47.679Z,1.80
2019-06-25T02:28:47.690Z,2.40
2019-06-25T02:29:47.703Z,1.90
2019-06-25T02:31:05.551Z,2.10
2019-06-25T02:31:47.725Z,2.60
2019-06-25T02:32:47.737Z,2.90
2019-06-25T02:33:47.749Z,3.70
2019-06-25T02:34:47.764Z,3.90
2019-06-25T02:35:47.772Z,2.90
2019-06-25T02:36:47.779Z,2.90
2019-06-25T02:37:47.792Z,2.20
2019-06-25T02:38:47.803Z,2.10
2019-06-25T02:39:47.815Z,2.60
2019-06-25T02:40:47.832Z,2.30
2019-06-25T02:41:47.842Z,2.80
2019-06-25T02:42:47.849Z,2.80
2019-06-25T02:43:47.862Z,2.50
2019-06-25T02:44:47.872Z,2.80
2019-06-25T02:45:47.898Z,2.50
2019-06-25T02:46:48.020Z,2.60
2019-06-25T02:47:47.921Z,2.30
2019-06-25T02:48:47.919Z,2.40
2019-06-25T02:49:47.927Z,2.10
2019-06-25T02:50:47.933Z,2.90
2019-06-25T02:51:47.960Z,2.60
2019-06-25T02:52:47.970Z,2.70
2019-06-25T02:53:47.976Z,2.90
2019-06-25T02:54:47.989Z,2.50
2019-06-25T02:55:48.005Z,2.70
2019-06-25T02:56:48.013Z,2.50
2019-06-25T02:57:48.016Z,2.40
2019-06-25T02:58:48.033Z,2.70
2019-06-25T02:59:48.046Z,2.60
2019-06-25T03:00:48.063Z,2.90
2019-06-25T03:01:48.071Z,2.30
2019-06-25T03:02:48.091Z,2.10
2019-06-25T03:03:48.094Z,2.20
2019-06-25T03:04:48.107Z,2.40
2019-06-25T03:05:48.118Z,2.40
2019-06-25T03:06:48.124Z,2.00
2019-06-25T03:07:48.138Z,2.20
2019-06-25T03:08:48.162Z,2.30
2019-06-25T03:09:48.181Z,2.80
2019-06-25T03:10:48.176Z,2.90
2019-06-25T03:11:48.186Z,2.10
2019-06-25T03:12:48.193Z,2.30
2019-06-25T03:13:48.195Z,2.00
2019-06-25T03:14:48.218Z,2.70
2019-06-25T03:15:48.229Z,2.60
2019-06-25T03:16:48.239Z,1.90
2019-06-25T03:17:48.265Z,2.20
2019-06-25T03:18:48.262Z,2.50
2019-06-25T03:19:48.273Z,2.10
2019-06-25T03:20:48.291Z,2.10
2019-06-25T03:21:48.304Z,2.00
2019-06-25T03:22:48.304Z,2.50
2019-06-25T03:23:48.319Z,2.30
2019-06-25T03:24:48.331Z,2.10
2019-06-25T03:25:48.344Z,2.30
2019-06-25T03:26:48.358Z,2.80
2019-06-25T03:27:48.360Z,2.60
2019-06-25T03:28:48.379Z,2.40
2019-06-25T03:29:48.393Z,2.40
2019-06-25T03:30:48.396Z,2.50
2019-06-25T03:32:06.439Z,2.90
2019-06-25T03:32:48.438Z,2.10
2019-06-25T03:33:48.434Z,2.40
2019-06-25T03:34:48.437Z,2.40
2019-06-25T03:35:48.462Z,2.30
2019-06-25T03:36:48.468Z,2.30
2019-06-25T03:37:48.481Z,2.40
2019-06-25T03:38:48.494Z,3.00
2019-06-25T03:39:48.506Z,2.40
2019-06-25T03:40:48.521Z,2.00
2019-06-25T03:41:48.529Z,1.90
2019-06-25T03:42:48.538Z,2.20
2019-06-25T03:43:48.558Z,2.60
2019-06-25T03:44:48.561Z,2.10
2019-06-25T03:45:48.583Z,2.50
2019-06-25T03:46:48.585Z,2.00
2019-06-25T03:47:48.588Z,2.20
2019-06-25T03:48:48.606Z,2.20
2019-06-25T03:49:48.618Z,2.10
2019-06-25T03:50:48.625Z,2.50
2019-06-25T03:51:48.637Z,2.50
2019-06-25T03:52:48.650Z,2.60
2019-06-25T03:53:48.664Z,2.30
2019-06-25T03:54:48.667Z,2.50
2019-06-25T03:55:48.683Z,2.10
2019-06-25T03:56:48.696Z,2.40
2019-06-25T03:57:48.713Z,2.10
2019-06-25T03:58:48.715Z,1.90
2019-06-25T03:59:48.729Z,2.20
2019-06-25T04:00:48.746Z,2.30
2019-06-25T04:01:48.754Z,2.10
2019-06-25T04:02:48.854Z,2.00
2019-06-25T04:03:48.930Z,2.10
2019-06-25T04:04:48.995Z,2.40
2019-06-25T04:05:48.807Z,1.90
2019-06-25T04:06:48.854Z,2.10
2019-06-25T04:07:48.904Z,1.90
2019-06-25T04:08:48.962Z,2.10
2019-06-25T04:09:49.079Z,2.00
2019-06-25T04:10:48.918Z,2.10
2019-06-25T04:11:52.492Z,2.20
2019-06-25T04:12:48.885Z,2.30
2019-06-25T04:13:48.891Z,1.80
2019-06-25T04:14:48.910Z,2.00
2019-06-25T04:15:48.915Z,2.30
2019-06-25T04:16:48.944Z,1.70
2019-06-25T04:17:48.945Z,1.90
2019-06-25T04:18:48.958Z,1.80
2019-06-25T04:19:49.231Z,2.00
2019-06-25T04:20:48.970Z,1.70
2019-06-25T04:21:48.990Z,1.90
2019-06-25T04:22:49.002Z,1.90
2019-06-25T04:23:49.009Z,2.30
2019-06-25T04:24:49.024Z,1.80
2019-06-25T04:25:49.030Z,2.00
2019-06-25T04:26:49.043Z,2.30
2019-06-25T04:27:49.062Z,2.10
2019-06-25T04:28:49.085Z,2.00
2019-06-25T04:29:49.078Z,1.70
2019-06-25T04:30:49.111Z,1.90
2019-06-25T04:31:49.105Z,2.00
2019-06-25T04:32:49.120Z,1.90
2019-06-25T04:33:49.128Z,2.30
2019-06-25T04:34:49.139Z,1.90
2019-06-25T04:35:49.193Z,2.60
2019-06-25T04:36:49.161Z,2.10
2019-06-25T04:37:49.176Z,1.90
2019-06-25T04:38:49.190Z,1.80
2019-06-25T04:39:49.198Z,2.00
2019-06-25T04:40:49.207Z,1.80
2019-06-25T04:41:49.233Z,1.60
2019-06-25T04:42:49.227Z,1.80
2019-06-25T04:43:49.303Z,1.80
2019-06-25T04:44:49.258Z,1.80
2019-06-25T04:45:49.272Z,2.30
2019-06-25T04:46:49.324Z,2.30
2019-06-25T04:47:49.301Z,2.30
2019-06-25T04:48:49.300Z,2.20
2019-06-25T04:49:49.309Z,1.80
2019-06-25T04:50:49.331Z,1.90
2019-06-25T04:51:49.337Z,1.90
2019-06-25T04:52:49.341Z,2.40
2019-06-25T04:53:49.365Z,1.90
2019-06-25T04:54:49.371Z,2.00
2019-06-25T04:55:49.383Z,2.70
2019-06-25T04:56:49.404Z,2.20
2019-06-25T04:57:49.418Z,1.70
2019-06-25T04:58:49.425Z,2.00
2019-06-25T04:59:49.450Z,2.00
2019-06-25T05:00:49.442Z,1.80
2019-06-25T05:01:49.477Z,1.70
2019-06-25T05:02:50.483Z,1.80
2019-06-25T05:03:49.488Z,2.00
2019-06-25T05:04:49.495Z,1.70
2019-06-25T05:05:49.519Z,1.90
2019-06-25T05:06:49.527Z,2.30
2019-06-25T05:07:49.531Z,2.10
2019-06-25T05:08:49.559Z,2.00
2019-06-25T05:09:49.572Z,1.80
2019-06-25T05:10:49.572Z,1.80
2019-06-25T05:11:49.587Z,2.30
2019-06-25T05:12:49.603Z,2.10
2019-06-25T05:13:49.618Z,2.00
2019-06-25T05:14:49.644Z,2.10
2019-06-25T05:15:49.633Z,1.90
2019-06-25T05:16:49.650Z,2.10
2019-06-25T05:17:49.662Z,1.80
2019-06-25T05:18:49.671Z,1.60
2019-06-25T05:19:49.684Z,1.70
2019-06-25T05:20:49.697Z,2.10
2019-06-25T05:21:49.710Z,2.10
2019-06-25T05:22:49.732Z,1.80
2019-06-25T05:23:49.732Z,1.90
2019-06-25T05:24:49.746Z,1.70
2019-06-25T05:25:49.759Z,2.10
2019-06-25T05:26:49.787Z,1.90
2019-06-25T05:27:49.793Z,2.10
2019-06-25T05:28:49.794Z,1.80
2019-06-25T05:29:49.816Z,1.90
2019-06-25T05:30:49.828Z,2.30
2019-06-25T05:31:49.841Z,1.90
2019-06-25T05:33:04.054Z,2.00
2019-06-25T05:33:49.868Z,2.00
2019-06-25T05:34:49.877Z,1.80
2019-06-25T05:35:49.886Z,2.40
2019-06-25T05:36:49.898Z,2.30
2019-06-25T05:37:49.918Z,2.40
2019-06-25T05:38:49.937Z,2.10
2019-06-25T05:39:49.934Z,2.40
2019-06-25T05:40:49.951Z,2.60
2019-06-25T05:41:49.958Z,2.10
2019-06-25T05:42:49.970Z,2.60
2019-06-25T05:43:49.990Z,2.50
2019-06-25T05:44:50.012Z,2.60
2019-06-25T05:45:50.018Z,1.80
2019-06-25T05:46:50.022Z,2.30
2019-06-25T05:47:50.034Z,1.90
2019-06-25T05:48:50.057Z,2.30
2019-06-25T05:49:50.066Z,1.90
2019-06-25T05:50:50.092Z,2.10
2019-06-25T05:51:50.081Z,2.00
2019-06-25T05:52:50.097Z,2.20
2019-06-25T05:53:50.118Z,2.40
2019-06-25T05:54:50.129Z,2.10
2019-06-25T05:55:50.129Z,2.00
2019-06-25T05:56:50.146Z,2.10
2019-06-25T05:57:50.156Z,2.30
2019-06-25T05:58:50.175Z,2.40
2019-06-25T05:59:50.214Z,2.40
2019-06-25T06:00:50.199Z,2.10
2019-06-25T06:01:50.211Z,2.00
2019-06-25T06:02:50.235Z,1.90
2019-06-25T06:03:50.239Z,1.60
2019-06-25T06:04:50.252Z,1.90
2019-06-25T06:05:50.271Z,2.60
2019-06-25T06:06:50.266Z,3.00
2019-06-25T06:07:50.291Z,2.00
2019-06-25T06:08:50.295Z,2.00
2019-06-25T06:09:50.320Z,2.00
2019-06-25T06:10:50.331Z,1.90
2019-06-25T06:11:50.336Z,2.30
2019-06-25T06:12:50.355Z,2.10
2019-06-25T06:13:50.368Z,2.00
2019-06-25T06:14:50.377Z,1.80
2019-06-25T06:15:50.394Z,1.80
2019-06-25T06:16:50.404Z,1.70
2019-06-25T06:17:50.419Z,2.00
2019-06-25T06:18:50.427Z,2.00
2019-06-25T06:19:50.435Z,1.90
2019-06-25T06:20:50.460Z,2.10
2019-06-25T06:21:50.468Z,1.70
2019-06-25T06:22:50.495Z,1.80
2019-06-25T06:24:50.496Z,1.80
2019-06-25T06:25:50.522Z,1.90
2019-06-25T06:26:50.548Z,2.00
2019-06-25T06:27:50.552Z,2.00
2019-06-25T06:28:50.566Z,1.80
2019-06-25T06:29:50.589Z,1.60
2019-06-25T06:30:50.584Z,2.00
2019-06-25T06:31:50.603Z,1.90
2019-06-25T06:32:50.620Z,1.90
2019-06-25T06:33:50.798Z,2.00
2019-06-25T06:34:50.642Z,1.80
2019-06-25T06:35:50.687Z,2.20
2019-06-25T06:36:50.880Z,1.80
2019-06-25T06:37:50.682Z,2.00
2019-06-25T06:38:50.705Z,1.90
2019-06-25T06:39:50.718Z,2.10
2019-06-25T06:40:50.731Z,1.70
2019-06-25T06:42:50.758Z,1.50
2019-06-25T06:43:50.773Z,1.80
2019-06-25T06:44:50.793Z,1.40
2019-06-25T06:45:50.830Z,1.40
2019-06-25T06:46:50.819Z,1.60
2019-06-25T06:47:50.827Z,1.50
2019-06-25T06:48:50.841Z,1.30
2019-06-25T06:49:50.871Z,1.50
2019-06-25T06:50:50.878Z,1.50
2019-06-25T06:51:50.888Z,1.50
2019-06-25T06:53:50.926Z,1.40
2019-06-25T06:54:50.941Z,1.50
2019-06-25T06:55:50.960Z,1.90
2019-06-25T06:56:50.977Z,1.70
2019-06-25T06:57:50.987Z,1.80
2019-06-25T06:58:51.527Z,1.80
2019-06-25T06:59:51.021Z,1.90
2019-06-25T07:00:51.041Z,1.70
2019-06-25T07:01:51.050Z,1.40
2019-06-25T07:02:51.130Z,1.70
2019-06-25T07:03:53.362Z,1.50
2019-06-25T07:04:51.099Z,1.60
2019-06-25T07:05:51.124Z,1.70
2019-06-25T07:06:51.133Z,1.20
2019-06-25T07:07:51.144Z,1.60
2019-06-25T07:08:51.158Z,1.50
2019-06-25T07:09:51.176Z,1.80
2019-06-25T07:10:51.211Z,1.50
2019-06-25T07:11:51.213Z,1.80
2019-06-25T07:12:51.232Z,1.80
2019-06-25T07:13:51.250Z,1.90
2019-06-25T07:14:51.258Z,1.40
2019-06-25T07:15:51.270Z,1.40
2019-06-25T07:16:51.293Z,1.60
2019-06-25T07:17:51.314Z,1.40
2019-06-25T07:18:51.318Z,1.90
2019-06-25T07:19:51.339Z,1.70
2019-06-25T07:20:51.353Z,1.80
2019-06-25T07:22:51.387Z,1.60
2019-06-25T07:23:51.405Z,1.90
2019-06-25T07:24:51.417Z,2.00
2019-06-25T07:25:51.437Z,1.60
2019-06-25T07:26:51.449Z,2.20
2019-06-25T07:27:52.907Z,1.90
2019-06-25T07:28:51.483Z,2.30
2019-06-25T07:29:51.500Z,2.30
2019-06-25T07:30:51.509Z,2.20
2019-06-25T07:31:51.537Z,2.30
2019-06-25T07:32:55.010Z,1.90
2019-06-25T07:33:51.578Z,1.90
2019-06-25T07:34:51.580Z,1.40
2019-06-25T07:35:51.609Z,1.30
2019-06-25T07:36:51.615Z,1.50
2019-06-25T07:37:51.629Z,1.60
2019-06-25T07:38:51.657Z,1.40
2019-06-25T07:40:51.685Z,1.40
2019-06-25T07:41:51.703Z,1.50
2019-06-25T07:42:51.720Z,1.30
2019-06-25T07:43:51.735Z,1.60
2019-06-25T07:44:51.758Z,1.70
2019-06-25T07:45:51.771Z,1.60
2019-06-25T07:46:51.793Z,1.40
2019-06-25T07:47:51.807Z,1.50
2019-06-25T07:48:51.815Z,1.50
2019-06-25T07:49:51.855Z,1.30
2019-06-25T07:50:51.866Z,1.60
2019-06-25T07:51:51.951Z,1.60
2019-06-25T07:52:51.899Z,1.50
2019-06-25T07:53:51.921Z,1.70
2019-06-25T07:54:51.954Z,1.60
2019-06-25T07:55:51.978Z,1.70
2019-06-25T07:56:51.975Z,1.50
2019-06-25T07:57:51.988Z,1.80
2019-06-25T07:58:52.013Z,1.30
2019-06-25T07:59:52.023Z,1.40
2019-06-25T08:00:52.045Z,1.30
2019-06-25T08:01:52.061Z,1.60
2019-06-25T08:02:52.077Z,1.50
2019-06-25T08:03:52.107Z,1.60
2019-06-25T08:04:52.117Z,1.40
2019-06-25T08:05:52.145Z,1.60
2019-06-25T08:06:52.150Z,1.40
2019-06-25T08:07:52.170Z,1.40
2019-06-25T08:08:52.189Z,1.40
2019-06-25T08:09:52.206Z,1.60
2019-06-25T08:10:52.249Z,1.30
2019-06-25T08:11:52.232Z,1.50
2019-06-25T08:12:52.255Z,1.30
2019-06-25T08:13:52.276Z,1.90
2019-06-25T08:14:52.300Z,1.60
2019-06-25T08:15:52.323Z,1.30
2019-06-25T08:16:52.342Z,1.50
2019-06-25T08:17:52.349Z,1.50
2019-06-25T08:18:52.356Z,1.50
2019-06-25T08:19:52.383Z,1.30
2019-06-25T08:20:52.416Z,1.30
2019-06-25T08:21:52.421Z,1.40
2019-06-25T08:23:52.460Z,1.40
2019-06-25T08:24:52.469Z,1.30
2019-06-25T08:25:52.524Z,1.30
2019-06-25T08:26:52.526Z,1.30
2019-06-25T08:27:52.535Z,1.40
2019-06-25T08:28:52.547Z,1.10
2019-06-25T08:29:52.574Z,1.70
2019-06-25T08:30:52.585Z,1.30
2019-06-25T08:31:52.616Z,1.60
2019-06-25T08:32:52.633Z,1.40
2019-06-25T08:33:52.641Z,1.30
2019-06-25T08:34:52.669Z,1.50
2019-06-25T08:35:52.692Z,1.30
2019-06-25T08:36:52.709Z,1.20
2019-06-25T08:37:52.718Z,1.30
2019-06-25T08:38:52.741Z,1.20
2019-06-25T08:39:52.753Z,1.10
2019-06-25T08:40:52.791Z,1.10
2019-06-25T08:41:52.786Z,1.20
2019-06-25T08:42:52.815Z,1.40
2019-06-25T08:43:52.836Z,1.40
2019-06-25T08:44:52.849Z,1.30
2019-06-25T08:45:52.870Z,1.30
2019-06-25T08:46:52.887Z,1.00
2019-06-25T08:47:52.912Z,1.20
2019-06-25T08:48:52.929Z,1.10
2019-06-25T08:49:52.949Z,1.10
2019-06-25T08:50:52.974Z,1.00
2019-06-25T08:51:52.990Z,1.10
2019-06-25T08:52:58.655Z,1.00
2019-06-25T08:53:53.023Z,1.20
2019-06-25T08:54:53.045Z,1.00
2019-06-25T08:55:53.072Z,1.50
2019-06-25T08:56:53.096Z,1.10
2019-06-25T08:57:53.111Z,1.10
2019-06-25T08:58:53.133Z,1.20
2019-06-25T08:59:53.151Z,1.30
2019-06-25T09:00:53.194Z,1.30
2019-06-25T09:01:53.192Z,1.20
2019-06-25T09:03:53.238Z,0.90
2019-06-25T09:04:58.020Z,1.00
2019-06-25T09:05:53.283Z,1.00
2019-06-25T09:06:53.297Z,1.10
2019-06-25T09:07:53.312Z,1.00
2019-06-25T09:08:53.348Z,1.00
2019-06-25T09:09:53.356Z,1.10
2019-06-25T09:10:53.362Z,1.00
2019-06-25T09:11:53.400Z,1.10
2019-06-25T09:12:53.416Z,1.10
2019-06-25T09:13:53.437Z,0.90
2019-06-25T09:14:53.453Z,1.00
2019-06-25T09:15:53.487Z,1.00
2019-06-25T09:16:53.491Z,1.00
2019-06-25T09:17:53.515Z,0.90
2019-06-25T09:18:53.546Z,0.90
2019-06-25T09:19:53.564Z,0.90
2019-06-25T09:20:53.579Z,0.80
2019-06-25T09:21:53.605Z,1.00
2019-06-25T09:22:53.634Z,1.00
2019-06-25T09:23:53.723Z,1.00
2019-06-25T09:24:53.667Z,0.90
2019-06-25T09:25:53.684Z,1.20
2019-06-25T09:26:53.719Z,0.90
2019-06-25T09:27:53.725Z,1.10
2019-06-25T09:28:53.746Z,1.00
2019-06-25T09:29:53.767Z,1.00
2019-06-25T09:30:53.791Z,0.90
2019-06-25T09:31:53.805Z,1.00
2019-06-25T09:32:53.840Z,0.90
2019-06-25T09:33:53.852Z,1.10
2019-06-25T09:34:53.886Z,1.10
2019-06-25T09:35:53.899Z,0.90
2019-06-25T09:36:53.908Z,1.00
2019-06-25T09:37:53.936Z,0.90
2019-06-25T09:38:53.949Z,0.80
2019-06-25T09:39:53.970Z,0.80
2019-06-25T09:40:54.146Z,0.90
2019-06-25T09:41:54.014Z,1.00
2019-06-25T09:42:54.036Z,0.70
2019-06-25T09:44:00.288Z,0.80
2019-06-25T09:44:54.079Z,0.90
2019-06-25T09:45:54.100Z,0.90
2019-06-25T09:46:54.115Z,0.90
2019-06-25T09:47:54.133Z,0.90
2019-06-25T09:48:54.158Z,1.10
2019-06-25T09:49:54.181Z,1.40
2019-06-25T09:50:54.198Z,1.00
2019-06-25T09:51:54.220Z,0.80
2019-06-25T09:52:54.245Z,1.10
2019-06-25T09:53:54.262Z,0.90
2019-06-25T09:54:54.308Z,0.80
2019-06-25T09:55:54.297Z,0.90
2019-06-25T09:56:54.312Z,0.70
2019-06-25T09:57:54.350Z,1.00
2019-06-25T09:58:54.366Z,1.00
2019-06-25T09:59:54.397Z,0.80
2019-06-25T10:00:54.404Z,1.00
2019-06-25T10:01:54.435Z,0.90
2019-06-25T10:02:54.451Z,0.80
2019-06-25T10:03:54.479Z,0.70
2019-06-25T10:04:54.494Z,0.80
2019-06-25T10:05:54.674Z,0.70
2019-06-25T10:06:54.545Z,0.80
2019-06-25T10:07:54.558Z,0.80
2019-06-25T10:08:54.584Z,0.80
2019-06-25T10:09:54.597Z,0.90
2019-06-25T10:10:54.624Z,1.10
2019-06-25T10:12:54.662Z,0.80
2019-06-25T10:13:54.684Z,0.80
2019-06-25T10:14:54.717Z,0.70
2019-06-25T10:15:54.729Z,0.80
2019-06-25T10:16:54.749Z,0.80
2019-06-25T10:17:54.770Z,0.90
2019-06-25T10:18:54.807Z,0.90
2019-06-25T10:19:54.814Z,0.80
2019-06-25T10:20:54.836Z,0.80
2019-06-25T10:21:54.858Z,0.80
2019-06-25T10:22:54.879Z,1.00
2019-06-25T10:23:54.905Z,0.80
2019-06-25T10:24:54.937Z,0.80
2019-06-25T10:25:54.951Z,0.70
2019-06-25T10:26:54.968Z,0.70
2019-06-25T10:27:54.998Z,0.70
2019-06-25T10:28:55.015Z,0.80
2019-06-25T10:29:55.044Z,0.80
2019-06-25T10:30:55.099Z,0.80
2019-06-25T10:31:55.077Z,0.60
2019-06-25T10:32:55.103Z,0.90
2019-06-25T10:33:55.134Z,0.80
2019-06-25T10:34:55.147Z,0.90
2019-06-25T10:35:55.211Z,0.70
2019-06-25T10:36:55.197Z,0.80
2019-06-25T10:37:55.217Z,0.80
2019-06-25T10:38:55.263Z,0.70
2019-06-25T10:39:55.284Z,0.70
2019-06-25T10:40:55.289Z,0.70
2019-06-25T10:41:55.301Z,0.70
2019-06-25T10:42:55.323Z,0.60
2019-06-25T10:44:55.368Z,0.60
2019-06-25T10:45:55.390Z,0.60
2019-06-25T10:46:55.409Z,0.70
2019-06-25T10:47:55.443Z,0.60
2019-06-25T10:48:55.458Z,0.60
2019-06-25T10:49:55.475Z,0.60
2019-06-25T10:50:55.505Z,0.60
2019-06-25T10:51:55.532Z,0.70
2019-06-25T10:52:55.546Z,0.60
2019-06-25T10:53:55.579Z,0.70
2019-06-25T10:54:55.596Z,0.60
2019-06-25T10:55:55.901Z,0.60
2019-06-25T10:56:55.635Z,0.60
2019-06-25T10:57:55.660Z,0.60
2019-06-25T10:58:55.674Z,0.70
2019-06-25T10:59:55.844Z,0.70
2019-06-25T11:00:55.720Z,0.60
2019-06-25T11:01:55.742Z,0.70
2019-06-25T11:02:55.767Z,0.70
2019-06-25T11:03:55.801Z,0.80
2019-06-25T11:04:55.808Z,0.80
2019-06-25T11:06:05.101Z,0.70
2019-06-25T11:07:04.400Z,0.80
2019-06-25T11:07:55.883Z,0.60
2019-06-25T11:08:55.897Z,0.70
2019-06-25T11:09:55.924Z,0.70
2019-06-25T11:10:55.938Z,0.60
2019-06-25T11:11:55.965Z,0.70
2019-06-25T11:12:55.998Z,0.60
2019-06-25T11:14:07.675Z,0.70
2019-06-25T11:14:56.318Z,0.70
2019-06-25T11:15:56.048Z,0.70
2019-06-25T11:16:56.078Z,0.60
2019-06-25T11:17:56.111Z,0.70
2019-06-25T11:18:56.133Z,0.80
2019-06-25T11:19:56.138Z,0.70
2019-06-25T11:20:56.160Z,0.80
2019-06-25T11:21:56.202Z,0.60
2019-06-25T11:22:56.208Z,0.90
2019-06-25T11:23:56.231Z,0.80
2019-06-25T11:24:56.263Z,0.70
2019-06-25T11:26:20.628Z,0.80
2019-06-25T11:26:56.294Z,0.90
2019-06-25T11:27:56.340Z,0.70
2019-06-25T11:28:56.361Z,0.80
2019-06-25T11:29:56.360Z,0.70
2019-06-25T11:30:56.387Z,0.60
2019-06-25T11:31:56.406Z,0.60
2019-06-25T11:32:56.424Z,0.70
2019-06-25T11:33:56.444Z,0.80
2019-06-25T11:34:56.474Z,0.50
2019-06-25T11:35:56.492Z,0.60
2019-06-25T11:36:56.529Z,0.80
2019-06-25T11:37:56.536Z,0.70
2019-06-25T11:38:56.584Z,0.60
2019-06-25T11:39:56.583Z,0.60
2019-06-25T11:40:56.596Z,0.60
2019-06-25T11:41:56.623Z,0.70
2019-06-25T11:42:56.668Z,0.60
2019-06-25T11:43:56.677Z,0.70
2019-06-25T11:44:56.693Z,0.60
2019-06-25T11:45:56.728Z,0.70
2019-06-25T11:46:56.733Z,0.70
2019-06-25T11:47:56.759Z,0.70
2019-06-25T11:48:56.782Z,0.60
2019-06-25T11:49:56.797Z,0.60
2019-06-25T11:50:56.821Z,0.70
2019-06-25T11:51:56.850Z,0.60
2019-06-25T11:52:56.869Z,0.60
2019-06-25T11:53:56.891Z,0.60
2019-06-25T11:54:56.909Z,0.60
2019-06-25T11:55:56.933Z,0.70
2019-06-25T11:56:56.974Z,0.70
2019-06-25T11:57:57.023Z,0.60
2019-06-25T11:58:57.012Z,0.70
2019-06-25T11:59:57.020Z,0.70
2019-06-25T12:00:57.052Z,0.70
2019-06-25T12:01:57.084Z,0.70
2019-06-25T12:02:57.087Z,0.70
2019-06-25T12:03:57.106Z,0.80
2019-06-25T12:04:57.140Z,0.70
2019-06-25T12:05:57.173Z,1.00
2019-06-25T12:06:57.177Z,0.70
2019-06-25T12:07:57.201Z,0.70
2019-06-25T12:08:57.253Z,0.60
2019-06-25T12:09:57.375Z,0.60
2019-06-25T12:10:57.286Z,1.10
2019-06-25T12:11:57.286Z,0.70
2019-06-25T12:12:57.312Z,0.70
2019-06-25T12:13:57.339Z,0.70
2019-06-25T12:14:57.356Z,0.60
2019-06-25T12:15:57.378Z,0.70
2019-06-25T12:16:57.397Z,0.70
2019-06-25T12:17:57.424Z,0.60
2019-06-25T12:18:57.447Z,0.60
2019-06-25T12:19:57.486Z,0.60
2019-06-25T12:20:57.505Z,0.60
2019-06-25T12:21:57.524Z,0.60
2019-06-25T12:22:57.542Z,0.70
2019-06-25T12:23:57.558Z,0.60
2019-06-25T12:24:57.628Z,0.70
2019-06-25T12:25:57.613Z,0.70
2019-06-25T12:26:57.632Z,0.60
2019-06-25T12:27:57.732Z,0.50
2019-06-25T12:28:57.675Z,0.60
2019-06-25T12:29:57.697Z,0.60
2019-06-25T12:30:57.725Z,0.50
2019-06-25T12:31:57.738Z,0.70
2019-06-25T12:32:57.789Z,0.60
2019-06-25T12:33:57.794Z,0.70
2019-06-25T12:34:59.435Z,0.60
2019-06-25T12:35:57.886Z,0.60
2019-06-25T12:37:09.111Z,0.60
2019-06-25T12:37:57.891Z,0.70
2019-06-25T12:38:57.930Z,0.80
2019-06-25T12:39:57.935Z,0.70
2019-06-25T12:40:57.957Z,0.70
2019-06-25T12:41:57.986Z,0.60
2019-06-25T12:42:58.001Z,0.70
2019-06-25T12:43:58.024Z,0.70
2019-06-25T12:44:58.044Z,0.80
2019-06-25T12:45:58.078Z,1.00
2019-06-25T12:47:02.448Z,0.60
2019-06-25T12:47:58.126Z,0.70
2019-06-25T12:48:58.142Z,0.80
2019-06-25T12:49:58.169Z,1.00
2019-06-25T12:50:58.186Z,0.80
2019-06-25T12:51:58.211Z,0.90
2019-06-25T12:52:58.389Z,1.00
2019-06-25T12:53:58.265Z,0.70
2019-06-25T12:54:58.279Z,0.60
2019-06-25T12:55:58.295Z,0.60
2019-06-25T12:56:58.336Z,0.70
2019-06-25T12:57:58.360Z,1.00
2019-06-25T12:58:58.385Z,0.80
2019-06-25T12:59:58.401Z,0.60
2019-06-25T13:00:58.423Z,0.90
2019-06-25T13:01:58.476Z,0.60
2019-06-25T13:02:58.475Z,0.60
2019-06-25T13:03:58.500Z,0.80
2019-06-25T13:04:58.511Z,0.70
2019-06-25T13:05:58.551Z,0.70
2019-06-25T13:06:58.568Z,0.80
2019-06-25T13:07:58.591Z,1.80
2019-06-25T13:08:58.612Z,2.60
2019-06-25T13:09:58.647Z,1.30
2019-06-25T13:10:58.662Z,3.70
2019-06-25T13:11:58.697Z,1.70
2019-06-25T13:12:58.708Z,0.90
2019-06-25T13:13:58.739Z,1.00
2019-06-25T13:14:58.757Z,1.20
2019-06-25T13:15:58.789Z,1.20
2019-06-25T13:16:58.817Z,1.30
2019-06-25T13:17:58.829Z,1.30
2019-06-25T13:18:58.859Z,0.90
2019-06-25T13:19:58.882Z,0.90
2019-06-25T13:20:58.899Z,0.90
2019-06-25T13:21:58.926Z,0.80
2019-06-25T13:22:58.949Z,1.10
2019-06-25T13:23:58.974Z,1.50
2019-06-25T13:24:58.993Z,1.40
2019-06-25T13:25:59.021Z,1.50
2019-06-25T13:26:59.044Z,1.20
2019-06-25T13:27:59.068Z,0.70
2019-06-25T13:28:59.117Z,1.00